Time;durP1;ratioP1;P1;durP2;ratioP2;P2;SDS_P1;SDS_P2;PMS_P1;PMS_P2;Temp;Humidity;BMP_temperature;BMP_pressure;BME280_temperature;BME280_humidity;BME280_pressure;Samples;Min_cycle;Max_cycle;Signal;HPM_P1;HPM_P2
2023/02/24 00:02:13;;;;;;;34.33;22.80;;;;;;;;;;4924338;29;20033;-91
2023/02/24 00:04:39;;;;;;;34.75;22.55;;;;;;;;;;4924237;29;20071;-91
2023/02/24 00:07:09;;;;;;;33.20;22.40;;;;;;;;;;4923810;29;20028;-91
2023/02/24 00:09:37;;;;;;;41.90;23.10;;;;;;;;;;4907196;29;20150;-90
2023/02/24 00:12:07;;;;;;;32.75;22.13;;;;;;;;;;4924074;29;20048;-90
2023/02/24 00:14:34;;;;;;;40.00;25.80;;;;;;;;;;4907178;29;20043;-92
2023/02/24 00:17:00;;;;;;;50.90;29.10;;;;;;;;;;4907287;29;20437;-91
2023/02/24 00:19:28;;;;;;;85.40;39.80;;;;;;;;;;4923972;29;20055;-93
2023/02/24 00:21:54;;;;;;;121.45;50.83;;;;;;;;;;4923978;29;20107;-92
2023/02/24 00:24:22;;;;;;;101.70;44.13;;;;;;;;;;4923518;29;20020;-93
2023/02/24 00:26:59;;;;;;;120.75;50.50;;;;;;;;;;4923153;29;20032;-92
2023/02/24 00:29:27;;;;;;;114.15;49.13;;;;;;;;;;4906930;29;20055;-93
2023/02/24 00:31:58;;;;;;;154.85;59.42;;;;;;;;;;4923425;29;20431;-91
2023/02/24 00:34:25;;;;;;;147.30;56.95;;;;;;;;;;4923329;29;20419;-91
2023/02/24 00:36:51;;;;;;;107.53;45.22;;;;;;;;;;4923510;29;20044;-91
2023/02/24 00:39:17;;;;;;;104.80;45.00;;;;;;;;;;4923801;29;20030;-90
2023/02/24 00:41:44;;;;;;;86.72;40.67;;;;;;;;;;4923241;29;20034;-91
2023/02/24 00:44:11;;;;;;;70.53;35.22;;;;;;;;;;4923289;29;20107;-88
2023/02/24 00:46:39;;;;;;;51.63;28.75;;;;;;;;;;4923263;29;20028;-90
2023/02/24 00:49:09;;;;;;;43.30;26.27;;;;;;;;;;4923415;29;20036;-90
2023/02/24 00:51:41;;;;;;;40.38;25.90;;;;;;;;;;4923478;29;20032;-91
2023/02/24 00:54:09;;;;;;;45.95;27.25;;;;;;;;;;4906393;29;20036;-91
2023/02/24 00:56:35;;;;;;;73.93;37.90;;;;;;;;;;4922145;29;20334;-91
2023/02/24 00:59:01;;;;;;;96.57;46.28;;;;;;;;;;4906385;29;20091;-91
2023/02/24 01:01:32;;;;;;;116.95;50.10;;;;;;;;;;4906429;29;20027;-92
2023/02/24 01:03:58;;;;;;;117.63;51.72;;;;;;;;;;4906039;29;20079;-93
2023/02/24 01:06:28;;;;;;;107.70;47.88;;;;;;;;;;4923126;29;20028;-92
2023/02/24 01:08:55;;;;;;;113.18;51.67;;;;;;;;;;4906324;29;20039;-93
2023/02/24 01:14:09;;;;;;;128.85;55.35;;;;;;;;;;4928488;29;20123;-93
2023/02/24 01:16:35;;;;;;;126.35;57.80;;;;;;;;;;4941788;29;20291;-94
2023/02/24 01:19:02;;;;;;;98.70;47.22;;;;;;;;;;4942022;29;20035;-94
2023/02/24 01:21:28;;;;;;;94.90;43.75;;;;;;;;;;4941993;29;20027;-94
2023/02/24 01:23:54;;;;;;;84.38;40.85;;;;;;;;;;4941864;29;20031;-93
2023/02/24 01:26:21;;;;;;;60.00;33.00;;;;;;;;;;4924823;29;20032;-91
2023/02/24 01:28:47;;;;;;;54.03;32.03;;;;;;;;;;4941031;29;20102;-91
2023/02/24 01:31:19;;;;;;;50.55;31.17;;;;;;;;;;4924947;29;20047;-91
2023/02/24 01:33:45;;;;;;;51.58;30.75;;;;;;;;;;4924738;29;20031;-90
2023/02/24 01:36:12;;;;;;;49.40;30.83;;;;;;;;;;4941226;29;20039;-92
2023/02/24 01:38:41;;;;;;;86.75;43.40;;;;;;;;;;4941484;29;20019;-90
2023/02/24 01:41:08;;;;;;;98.50;48.90;;;;;;;;;;4941204;29;20407;-91
2023/02/24 01:43:54;;;;;;;61.28;34.92;;;;;;;;;;4941534;29;20054;-90
2023/02/24 01:46:23;;;;;;;48.20;30.48;;;;;;;;;;4941329;29;20032;-90
2023/02/24 01:48:50;;;;;;;52.03;30.70;;;;;;;;;;4941424;29;20031;-91
2023/02/24 01:51:16;;;;;;;45.25;30.17;;;;;;;;;;4917346;29;20024;-91
2023/02/24 01:53:42;;;;;;;44.15;29.13;;;;;;;;;;4922218;29;20296;-90
2023/02/24 01:56:12;;;;;;;48.28;30.52;;;;;;;;;;4921887;29;20039;-93
2023/02/24 01:58:39;;;;;;;48.15;30.30;;;;;;;;;;4905387;29;20028;-92
2023/02/24 02:01:08;;;;;;;49.47;30.90;;;;;;;;;;4922306;29;20071;-94
2023/02/24 02:03:35;;;;;;;50.10;32.42;;;;;;;;;;4922188;29;20032;-92
2023/02/24 02:06:06;;;;;;;49.33;31.75;;;;;;;;;;4905208;29;20032;-94
2023/02/24 02:08:35;;;;;;;46.63;31.73;;;;;;;;;;4921784;29;20028;-92
2023/02/24 02:11:06;;;;;;;50.50;32.78;;;;;;;;;;4921989;29;20036;-92
2023/02/24 02:13:34;;;;;;;55.88;30.00;;;;;;;;;;4905218;29;20322;-93
2023/02/24 02:16:10;;;;;;;48.10;32.72;;;;;;;;;;4904704;29;20028;-92
2023/02/24 02:18:47;;;;;;;45.78;30.75;;;;;;;;;;4905003;29;20036;-93
2023/02/24 02:21:25;;;;;;;46.97;31.42;;;;;;;;;;4921879;29;20040;-94
2023/02/24 02:24:15;;;;;;;52.22;31.83;;;;;;;;;;4921711;29;20024;-94
2023/02/24 02:27:00;;;;;;;48.50;30.40;;;;;;;;;;4916697;29;20083;-92
2023/02/24 02:29:30;;;;;;;49.55;33.30;;;;;;;;;;4923789;29;20039;-94
2023/02/24 02:32:05;;;;;;;50.50;31.88;;;;;;;;;;4940743;29;20421;-95
2023/02/24 02:34:40;;;;;;;50.95;31.67;;;;;;;;;;4924021;29;20031;-94
2023/02/24 02:37:18;;;;;;;47.78;31.70;;;;;;;;;;4940725;29;20038;-95
2023/02/24 02:39:59;;;;;;;53.40;33.33;;;;;;;;;;4940838;29;20063;-94
2023/02/24 02:45:29;;;;;;;50.10;31.75;;;;;;;;;;4921601;29;20051;-91
2023/02/24 02:48:06;;;;;;;45.95;31.10;;;;;;;;;;4921232;29;20423;-91
2023/02/24 02:50:44;;;;;;;46.63;32.03;;;;;;;;;;4921276;29;20123;-91
2023/02/24 02:53:29;;;;;;;50.92;31.65;;;;;;;;;;4904707;29;20028;-92
2023/02/24 02:56:21;;;;;;;48.92;33.22;;;;;;;;;;4920934;29;20048;-92
2023/02/24 02:58:53;;;;;;;47.83;30.75;;;;;;;;;;4911606;29;20343;-95
2023/02/24 03:01:20;;;;;;;49.25;32.65;;;;;;;;;;4924406;29;20115;-96
2023/02/24 03:03:49;;;;;;;61.67;35.00;;;;;;;;;;4922571;29;20047;-95
2023/02/24 03:06:16;;;;;;;53.72;34.08;;;;;;;;;;4921628;29;20053;-95
2023/02/24 03:08:45;;;;;;;45.47;31.42;;;;;;;;;;4904929;29;20374;-94
2023/02/24 03:14:17;;;;;;;44.80;30.30;;;;;;;;;;4921741;29;20040;-94
2023/02/24 03:16:44;;;;;;;47.90;30.98;;;;;;;;;;4921505;29;20036;-94
2023/02/24 03:19:13;;;;;;;46.70;30.65;;;;;;;;;;4922633;29;20035;-94
2023/02/24 03:21:41;;;;;;;51.92;32.10;;;;;;;;;;4924971;29;20035;-95
2023/02/24 03:24:07;;;;;;;56.28;33.53;;;;;;;;;;4925246;29;20028;-95
2023/02/24 03:26:53;;;;;;;62.88;35.28;;;;;;;;;;4908409;29;20040;-94
2023/02/24 03:29:26;;;;;;;51.78;32.13;;;;;;;;;;4889063;29;20432;-93
2023/02/24 03:32:11;;;;;;;48.13;30.35;;;;;;;;;;4905902;29;20315;-92
2023/02/24 03:34:56;;;;;;;46.00;30.38;;;;;;;;;;4905574;29;20088;-94
2023/02/24 03:37:26;;;;;;;43.40;29.80;;;;;;;;;;4906091;29;20052;-92
2023/02/24 03:40:10;;;;;;;47.03;29.95;;;;;;;;;;4888943;29;20028;-93
2023/02/24 03:42:37;;;;;;;41.72;29.95;;;;;;;;;;4905450;29;20024;-93
2023/02/24 03:45:05;;;;;;;44.75;30.10;;;;;;;;;;4905813;29;20061;-93
2023/02/24 03:47:31;;;;;;;44.42;30.48;;;;;;;;;;4905413;29;20059;-93
2023/02/24 03:49:57;;;;;;;44.00;29.08;;;;;;;;;;4905720;29;20029;-94
2023/02/24 03:52:31;;;;;;;46.38;29.85;;;;;;;;;;4905567;29;20035;-95
2023/02/24 03:55:11;;;;;;;47.28;30.98;;;;;;;;;;4913708;29;20028;-93
2023/02/24 03:58:01;;;;;;;47.25;30.55;;;;;;;;;;4907502;29;20063;-94
2023/02/24 04:00:34;;;;;;;48.42;31.98;;;;;;;;;;4906690;29;20056;-91
2023/02/24 04:03:18;;;;;;;45.83;30.15;;;;;;;;;;4904799;29;20080;-91
2023/02/24 04:05:46;;;;;;;43.97;29.80;;;;;;;;;;4888814;29;20067;-92
2023/02/24 04:08:13;;;;;;;43.65;28.65;;;;;;;;;;4888673;29;20077;-92
2023/02/24 04:13:45;;;;;;;46.10;29.98;;;;;;;;;;4905509;29;20112;-94
2023/02/24 04:16:17;;;;;;;44.22;29.17;;;;;;;;;;4904991;29;20032;-92
2023/02/24 04:18:47;;;;;;;45.92;29.98;;;;;;;;;;4905022;29;20024;-92
2023/02/24 04:21:14;;;;;;;39.25;27.92;;;;;;;;;;4905124;29;20032;-93
2023/02/24 04:23:42;;;;;;;43.30;29.10;;;;;;;;;;4904892;29;20365;-93
2023/02/24 04:26:11;;;;;;;42.20;27.90;;;;;;;;;;4904678;29;20037;-92
2023/02/24 04:28:38;;;;;;;47.55;28.88;;;;;;;;;;4917811;29;20490;-92
2023/02/24 04:31:08;;;;;;;43.25;28.20;;;;;;;;;;4923768;29;20099;-91
2023/02/24 04:33:35;;;;;;;40.53;28.92;;;;;;;;;;4923667;29;20029;-93
2023/02/24 04:36:01;;;;;;;41.88;28.25;;;;;;;;;;4906721;29;20048;-94
2023/02/24 04:38:27;;;;;;;41.90;27.90;;;;;;;;;;4908876;29;20020;-94
2023/02/24 04:40:54;;;;;;;44.72;29.63;;;;;;;;;;4906655;29;20032;-94
2023/02/24 04:43:20;;;;;;;41.08;27.25;;;;;;;;;;4922566;29;20474;-80
2023/02/24 04:45:46;;;;;;;43.55;28.17;;;;;;;;;;4922388;29;20047;-82
2023/02/24 04:48:12;;;;;;;46.33;29.48;;;;;;;;;;4926571;29;20156;-82
2023/02/24 04:50:40;;;;;;;44.40;28.63;;;;;;;;;;4941328;29;20047;-83
2023/02/24 04:53:08;;;;;;;51.83;30.83;;;;;;;;;;4941391;29;20418;-83
2023/02/24 04:55:39;;;;;;;66.07;36.70;;;;;;;;;;4941186;29;20040;-83
2023/02/24 04:58:05;;;;;;;62.80;34.15;;;;;;;;;;4924037;29;20071;-83
2023/02/24 05:00:35;;;;;;;56.88;32.25;;;;;;;;;;4941189;29;20410;-83
2023/02/24 05:03:04;;;;;;;51.03;29.00;;;;;;;;;;4924611;29;20071;-83
2023/02/24 05:05:34;;;;;;;48.67;30.30;;;;;;;;;;4941075;29;20410;-82
2023/02/24 05:08:05;;;;;;;45.58;29.00;;;;;;;;;;4924227;29;20038;-82
2023/02/24 05:10:36;;;;;;;51.55;30.20;;;;;;;;;;4941106;29;20494;-82
2023/02/24 05:13:05;;;;;;;46.25;28.70;;;;;;;;;;4924100;29;20575;-82
2023/02/24 05:15:31;;;;;;;47.95;29.02;;;;;;;;;;4941069;29;20027;-83
2023/02/24 05:17:58;;;;;;;51.45;28.38;;;;;;;;;;4923258;29;20047;-82
2023/02/24 05:23:10;;;;;;;41.30;26.73;;;;;;;;;;4921786;29;20059;-82
2023/02/24 05:25:36;;;;;;;38.05;26.13;;;;;;;;;;4921501;29;20028;-82
2023/02/24 05:28:06;;;;;;;50.85;26.45;;;;;;;;;;4921638;29;20060;-82
2023/02/24 05:30:32;;;;;;;44.25;24.95;;;;;;;;;;4922058;29;20428;-82
2023/02/24 05:32:58;;;;;;;50.20;25.98;;;;;;;;;;4921377;29;20039;-82
2023/02/24 05:35:24;;;;;;;53.75;28.88;;;;;;;;;;4920882;29;20036;-82
2023/02/24 05:37:51;;;;;;;69.38;28.05;;;;;;;;;;4933206;29;20032;-83
2023/02/24 05:40:21;;;;;;;62.72;27.50;;;;;;;;;;4913926;29;20423;-82
2023/02/24 05:42:47;;;;;;;62.30;29.65;;;;;;;;;;4920476;29;20028;-83
2023/02/24 05:45:13;;;;;;;60.45;31.98;;;;;;;;;;4912484;29;20046;-82
2023/02/24 05:47:40;;;;;;;56.20;31.15;;;;;;;;;;4930718;29;20344;-82
2023/02/24 05:50:08;;;;;;;64.95;33.53;;;;;;;;;;4930418;29;20486;-82
2023/02/24 05:52:35;;;;;;;72.15;35.22;;;;;;;;;;4904059;29;20055;-82
2023/02/24 05:55:05;;;;;;;65.13;33.58;;;;;;;;;;4923091;29;20039;-82
2023/02/24 05:57:34;;;;;;;68.10;33.50;;;;;;;;;;4936795;29;20032;-82
2023/02/24 06:00:10;;;;;;;63.33;31.75;;;;;;;;;;4924044;29;20030;-82
2023/02/24 06:02:37;;;;;;;63.88;33.17;;;;;;;;;;4921041;29;20055;-82
2023/02/24 06:05:03;;;;;;;76.50;38.75;;;;;;;;;;4921323;29;20071;-82
2023/02/24 06:07:34;;;;;;;79.18;37.05;;;;;;;;;;4921028;29;20027;-82
2023/02/24 06:10:03;;;;;;;65.07;34.13;;;;;;;;;;4903661;29;20044;-82
2023/02/24 06:12:33;;;;;;;74.30;36.45;;;;;;;;;;4920862;29;20040;-81
2023/02/24 06:14:59;;;;;;;85.38;39.35;;;;;;;;;;4920993;29;20327;-82
2023/02/24 06:17:26;;;;;;;76.35;39.30;;;;;;;;;;4911465;29;20042;-82
2023/02/24 06:19:53;;;;;;;86.55;42.13;;;;;;;;;;4939938;29;20318;-92
2023/02/24 06:22:20;;;;;;;87.47;39.20;;;;;;;;;;4939819;29;20035;-83
2023/02/24 06:24:48;;;;;;;91.85;37.60;;;;;;;;;;4911828;29;20031;-82
2023/02/24 06:27:18;;;;;;;90.53;35.03;;;;;;;;;;4933709;29;20058;-81
2023/02/24 06:29:45;;;;;;;79.55;30.88;;;;;;;;;;4918648;29;20454;-83
2023/02/24 06:32:11;;;;;;;60.38;30.92;;;;;;;;;;4920665;29;20024;-83
2023/02/24 06:34:38;;;;;;;67.15;33.95;;;;;;;;;;4927306;29;20032;-83
2023/02/24 06:37:05;;;;;;;58.60;30.20;;;;;;;;;;4933820;29;20032;-80
2023/02/24 06:39:32;;;;;;;75.00;35.55;;;;;;;;;;4941076;29;20028;-91
2023/02/24 06:42:02;;;;;;;73.45;36.22;;;;;;;;;;4939418;29;20027;-82
2023/02/24 06:44:34;;;;;;;77.15;36.88;;;;;;;;;;4939166;29;20030;-82
2023/02/24 06:47:00;;;;;;;93.70;41.13;;;;;;;;;;4939142;29;20066;-82
2023/02/24 06:49:26;;;;;;;81.93;39.85;;;;;;;;;;4938944;29;20028;-81
2023/02/24 06:51:53;;;;;;;87.90;41.17;;;;;;;;;;4939048;29;20043;-82
2023/02/24 06:54:21;;;;;;;85.72;39.80;;;;;;;;;;4938457;29;20040;-82
2023/02/24 06:57:08;;;;;;;75.53;37.40;;;;;;;;;;4938982;29;20036;-82
2023/02/24 06:59:34;;;;;;;71.00;37.65;;;;;;;;;;4938976;29;20067;-83
2023/02/24 07:02:02;;;;;;;68.70;36.03;;;;;;;;;;4939135;29;20023;-82
2023/02/24 07:04:28;;;;;;;62.70;30.73;;;;;;;;;;4932478;29;20100;-82
2023/02/24 07:06:56;;;;;;;50.67;29.35;;;;;;;;;;4928767;29;20483;-82
2023/02/24 07:09:23;;;;;;;60.33;32.47;;;;;;;;;;4928670;29;20063;-82
2023/02/24 07:11:51;;;;;;;55.35;31.15;;;;;;;;;;4928114;29;20419;-82
2023/02/24 07:14:18;;;;;;;56.08;30.00;;;;;;;;;;4929870;29;20079;-82
2023/02/24 07:16:44;;;;;;;70.10;34.10;;;;;;;;;;4939010;29;20063;-82
2023/02/24 07:19:12;;;;;;;59.13;31.67;;;;;;;;;;4938996;29;20020;-82
2023/02/24 07:21:42;;;;;;;68.28;37.22;;;;;;;;;;4933027;29;20021;-83
2023/02/24 07:24:08;;;;;;;58.03;32.40;;;;;;;;;;4926676;29;20036;-81
2023/02/24 07:26:40;;;;;;;43.90;28.17;;;;;;;;;;4928435;29;20127;-82
2023/02/24 07:29:06;;;;;;;49.40;29.27;;;;;;;;;;4933898;29;20064;-82
2023/02/24 07:31:33;;;;;;;43.08;26.33;;;;;;;;;;4938498;29;20036;-82
2023/02/24 07:34:00;;;;;;;40.92;26.60;;;;;;;;;;4938908;29;20078;-82
2023/02/24 07:36:28;;;;;;;45.03;27.95;;;;;;;;;;4938416;29;20042;-82
2023/02/24 07:38:56;;;;;;;45.42;28.23;;;;;;;;;;4932322;29;20034;-82
2023/02/24 07:41:25;;;;;;;47.15;28.70;;;;;;;;;;4905115;29;20035;-82
2023/02/24 07:43:51;;;;;;;50.60;30.52;;;;;;;;;;4928248;29;20058;-82
2023/02/24 07:46:19;;;;;;;47.65;28.90;;;;;;;;;;4929568;29;20027;-82
2023/02/24 07:48:46;;;;;;;43.03;27.55;;;;;;;;;;4907763;29;20079;-81
2023/02/24 07:51:13;;;;;;;44.83;28.30;;;;;;;;;;4929002;29;20024;-82
2023/02/24 07:53:40;;;;;;;54.80;31.50;;;;;;;;;;4927060;29;20020;-82
2023/02/24 07:56:12;;;;;;;65.53;35.65;;;;;;;;;;4927664;29;20032;-81
2023/02/24 07:58:40;;;;;;;;;;;;;;;;;;4926262;29;20036;-82
2023/02/24 08:01:07;;;;;;;64.57;33.72;;;;;;;;;;4923701;29;20014;-82
2023/02/24 08:03:40;;;;;;;65.88;35.38;;;;;;;;;;4929017;29;20059;-82
2023/02/24 08:06:14;;;;;;;60.85;35.80;;;;;;;;;;4930142;29;20056;-82
2023/02/24 08:09:15;;;;;;;56.58;32.55;;;;;;;;;;4941861;29;20118;-82
2023/02/24 08:14:59;;;;;;;44.75;28.35;;;;;;;;;;4938218;29;20155;-81
2023/02/24 08:17:25;;;;;;;52.40;31.75;;;;;;;;;;4931384;29;20029;-81
2023/02/24 08:22:37;;;;;;;46.35;30.33;;;;;;;;;;4931595;29;20039;-81
2023/02/24 08:25:07;;;;;;;46.47;30.13;;;;;;;;;;4933350;29;20028;-81
2023/02/24 08:27:37;;;;;;;45.25;28.27;;;;;;;;;;4930138;29;20446;-80
2023/02/24 08:30:04;;;;;;;45.88;27.83;;;;;;;;;;4933712;29;20174;-82
2023/02/24 08:32:32;;;;;;;41.63;28.27;;;;;;;;;;4922086;29;20032;-81
2023/02/24 08:35:02;;;;;;;46.58;28.58;;;;;;;;;;4905355;29;20024;-81
2023/02/24 08:37:38;;;;;;;47.08;28.48;;;;;;;;;;4923195;29;20032;-81
2023/02/24 08:40:05;;;;;;;42.10;28.33;;;;;;;;;;4921959;29;20032;-81
2023/02/24 08:42:34;;;;;;;44.30;28.10;;;;;;;;;;4921855;29;20021;-81
2023/02/24 08:45:03;;;;;;;66.15;38.20;;;;;;;;;;4921927;29;20431;-81
2023/02/24 08:47:34;;;;;;;62.05;37.70;;;;;;;;;;4921394;29;20032;-81
2023/02/24 08:50:00;;;;;;;42.10;27.55;;;;;;;;;;4921449;29;20064;-80
2023/02/24 08:52:27;;;;;;;48.60;32.47;;;;;;;;;;4922570;29;20020;-81
2023/02/24 08:54:58;;;;;;;44.60;29.33;;;;;;;;;;4922678;29;20028;-81
2023/02/24 08:57:27;;;;;;;52.83;32.90;;;;;;;;;;4922998;29;20327;-81
2023/02/24 08:59:56;;;;;;;49.45;30.13;;;;;;;;;;4922931;29;20036;-81
2023/02/24 09:02:27;;;;;;;54.70;32.03;;;;;;;;;;4922550;29;20080;-81
2023/02/24 09:04:54;;;;;;;43.85;29.77;;;;;;;;;;4922701;29;20407;-81
2023/02/24 09:07:25;;;;;;;45.90;28.80;;;;;;;;;;4922643;29;20076;-81
2023/02/24 09:09:55;;;;;;;46.10;31.17;;;;;;;;;;4922552;29;20064;-81
2023/02/24 09:12:23;;;;;;;50.03;33.08;;;;;;;;;;4921389;29;20286;-81
2023/02/24 09:14:54;;;;;;;50.08;30.90;;;;;;;;;;4922246;29;20039;-80
2023/02/24 09:17:27;;;;;;;52.85;34.35;;;;;;;;;;4920388;29;20431;-81
2023/02/24 09:22:55;;;;;;;47.05;31.52;;;;;;;;;;4922247;29;20367;-81
2023/02/24 09:25:22;;;;;;;61.90;37.67;;;;;;;;;;4922436;29;20062;-80
2023/02/24 09:28:06;;;;;;;52.35;34.85;;;;;;;;;;4922059;29;20052;-80
2023/02/24 09:30:37;;;;;;;84.93;43.38;;;;;;;;;;4922332;29;20032;-81
2023/02/24 09:33:07;;;;;;;71.50;41.35;;;;;;;;;;4920250;29;20122;-80
2023/02/24 09:35:35;;;;;;;61.35;37.80;;;;;;;;;;4920582;29;20059;-80
2023/02/24 09:38:05;;;;;;;50.20;33.13;;;;;;;;;;4921004;29;20020;-81
2023/02/24 09:40:38;;;;;;;52.45;34.65;;;;;;;;;;4922276;29;20025;-81
2023/02/24 09:43:09;;;;;;;45.15;31.52;;;;;;;;;;4921576;29;20107;-80
2023/02/24 09:45:38;;;;;;;46.38;31.42;;;;;;;;;;4920789;29;20030;-80
2023/02/24 09:48:20;;;;;;;48.90;34.05;;;;;;;;;;4921742;29;20325;-80
2023/02/24 09:50:59;;;;;;;55.58;36.65;;;;;;;;;;4921883;29;20028;-81
2023/02/24 09:53:28;;;;;;;47.45;31.83;;;;;;;;;;4921932;29;20036;-80
2023/02/24 09:56:05;;;;;;;49.28;33.20;;;;;;;;;;4920535;29;20418;-80
2023/02/24 09:58:36;;;;;;;48.58;32.63;;;;;;;;;;4920542;29;20457;-80
2023/02/24 10:01:21;;;;;;;47.58;31.02;;;;;;;;;;4921563;29;20023;-90
2023/02/24 10:03:50;;;;;;;45.30;31.73;;;;;;;;;;4903924;29;20326;-80
2023/02/24 10:06:19;;;;;;;43.97;31.20;;;;;;;;;;4920650;29;20048;-80
2023/02/24 10:09:11;;;;;;;48.70;32.53;;;;;;;;;;4921544;29;20107;-80
2023/02/24 10:11:52;;;;;;;52.28;33.47;;;;;;;;;;4921428;29;20055;-79
2023/02/24 10:14:19;;;;;;;51.80;33.17;;;;;;;;;;4921525;29;20036;-79
2023/02/24 10:17:21;;;;;;;43.90;31.40;;;;;;;;;;4921159;29;20032;-79
2023/02/24 10:19:33;;;;;;;48.47;32.03;;;;;;;;;;4919783;29;20103;-78
2023/02/24 10:22:27;;;;;;;38.67;29.17;;;;;;;;;;4921175;29;20123;-79
2023/02/24 10:25:09;;;;;;;45.70;32.13;;;;;;;;;;4904063;29;20114;-79
2023/02/24 10:27:56;;;;;;;47.33;33.75;;;;;;;;;;4921872;29;20052;-80
2023/02/24 10:30:41;;;;;;;50.83;33.08;;;;;;;;;;4910799;29;20028;-80
2023/02/24 10:33:16;;;;;;;41.17;28.58;;;;;;;;;;4921058;29;20024;-79
2023/02/24 10:35:42;;;;;;;45.88;30.17;;;;;;;;;;4920902;29;20032;-80
2023/02/24 10:38:09;;;;;;;39.58;29.38;;;;;;;;;;4920736;29;20114;-79
2023/02/24 10:40:45;;;;;;;46.75;30.23;;;;;;;;;;4916449;29;20050;-80
2023/02/24 10:43:17;;;;;;;39.33;26.83;;;;;;;;;;4915751;29;20035;-83
2023/02/24 10:45:44;;;;;;;50.22;34.67;;;;;;;;;;4928931;29;20075;-79
2023/02/24 10:48:23;;;;;;;36.97;29.15;;;;;;;;;;4929137;29;20035;-80
2023/02/24 10:50:53;;;;;;;42.15;29.17;;;;;;;;;;4929196;29;20027;-80
2023/02/24 10:53:36;;;;;;;42.75;29.83;;;;;;;;;;4927534;29;20422;-80
2023/02/24 10:56:25;;;;;;;37.92;28.15;;;;;;;;;;4920837;29;20060;-79
2023/02/24 11:02:05;;;;;;;36.85;25.55;;;;;;;;;;4920763;29;20056;-80
2023/02/24 11:04:52;;;;;;;35.90;26.15;;;;;;;;;;4903892;29;20025;-79
2023/02/24 11:07:32;;;;;;;35.42;25.33;;;;;;;;;;4920681;29;20052;-79
2023/02/24 11:10:10;;;;;;;40.95;24.63;;;;;;;;;;4920580;29;20044;-79
2023/02/24 11:18:17;;;;;;;49.65;28.45;;;;;;;;;;4920793;29;20036;-79
2023/02/24 11:20:55;;;;;;;34.63;23.73;;;;;;;;;;4920654;29;20047;-81
2023/02/24 11:23:34;;;;;;;24.75;14.18;;;;;;;;;;4920749;29;20399;-79
2023/02/24 11:26:03;;;;;;;21.17;10.02;;;;;;;;;;4920532;29;20032;-78
2023/02/24 11:28:29;;;;;;;18.92;9.68;;;;;;;;;;4920345;29;20056;-78
2023/02/24 11:30:58;;;;;;;20.60;10.98;;;;;;;;;;4920461;29;20047;-78
2023/02/24 11:33:24;;;;;;;23.00;10.25;;;;;;;;;;4920479;29;20032;-79
2023/02/24 11:35:53;;;;;;;24.15;10.70;;;;;;;;;;4920284;29;20341;-78
2023/02/24 11:38:40;;;;;;;18.70;10.20;;;;;;;;;;4919441;29;20115;-78
2023/02/24 11:41:17;;;;;;;24.10;12.68;;;;;;;;;;4926502;29;20016;-79
2023/02/24 11:43:45;;;;;;;18.80;11.02;;;;;;;;;;4914209;29;20036;-78
2023/02/24 11:46:20;;;;;;;22.80;12.15;;;;;;;;;;4925261;29;20035;-81
2023/02/24 11:48:51;;;;;;;22.08;11.60;;;;;;;;;;4911273;29;20043;-78
2023/02/24 11:51:22;;;;;;;26.67;12.45;;;;;;;;;;4922913;29;20084;-80
2023/02/24 11:54:05;;;;;;;19.55;13.00;;;;;;;;;;4910323;29;20035;-78
2023/02/24 11:56:43;;;;;;;20.52;10.75;;;;;;;;;;4922561;29;20088;-81
2023/02/24 11:59:28;;;;;;;19.77;9.70;;;;;;;;;;4905057;29;20225;-78
2023/02/24 12:02:10;;;;;;;17.52;10.15;;;;;;;;;;4931145;29;20032;-78
2023/02/24 12:04:39;;;;;;;17.95;8.90;;;;;;;;;;4932085;29;20024;-78
2023/02/24 12:07:08;;;;;;;17.55;8.55;;;;;;;;;;4930973;29;20358;-78
2023/02/24 12:09:43;;;;;;;15.70;8.50;;;;;;;;;;4931636;29;20036;-78
2023/02/24 12:12:23;;;;;;;16.25;8.45;;;;;;;;;;4931243;29;20119;-78
2023/02/24 12:14:57;;;;;;;17.90;9.50;;;;;;;;;;4936034;29;20028;-79
2023/02/24 12:17:35;;;;;;;18.33;10.02;;;;;;;;;;4933760;29;20039;-78
2023/02/24 12:20:22;;;;;;;20.42;12.32;;;;;;;;;;4922903;29;20028;-79
2023/02/24 12:23:09;;;;;;;32.60;20.05;;;;;;;;;;4923294;29;20083;-79
2023/02/24 12:25:48;;;;;;;27.92;15.13;;;;;;;;;;4812949;29;20043;-79
2023/02/24 12:28:37;;;;;;;42.22;18.88;;;;;;;;;;4828068;29;20062;-78
2023/02/24 12:31:13;;;;;;;29.23;14.13;;;;;;;;;;4827709;29;20043;-79
2023/02/24 12:33:51;;;;;;;40.25;19.20;;;;;;;;;;4828447;29;20039;-79
2023/02/24 12:36:35;;;;;;;29.30;13.68;;;;;;;;;;4828119;29;20043;-79
2023/02/24 12:39:11;;;;;;;25.50;12.73;;;;;;;;;;4827986;29;20022;-78
2023/02/24 12:41:43;;;;;;;25.25;13.15;;;;;;;;;;4825368;29;20033;-78
2023/02/24 12:44:09;;;;;;;;;;;;;;;;;;4831084;29;20034;-78
2023/02/24 12:46:37;;;;;;;28.27;14.35;;;;;;;;;;4846368;29;19949;-78
2023/02/24 12:49:03;;;;;;;27.50;15.95;;;;;;;;;;4846266;29;20120;-78
2023/02/24 12:51:37;;;;;;;43.55;24.95;;;;;;;;;;4846217;29;20449;-78
2023/02/24 12:54:06;;;;;;;24.48;13.52;;;;;;;;;;4846414;29;20050;-79
2023/02/24 12:56:41;;;;;;;45.17;22.80;;;;;;;;;;4845915;29;20383;-78
2023/02/24 12:59:08;;;;;;;35.97;19.20;;;;;;;;;;4846131;29;20417;-79
2023/02/24 13:01:58;;;;;;;24.48;13.85;;;;;;;;;;4850551;29;20045;-79
2023/02/24 13:04:24;;;;;;;27.73;18.38;;;;;;;;;;4867532;29;20051;-78
2023/02/24 13:06:51;;;;;;;24.92;17.50;;;;;;;;;;4883133;29;20045;-79
2023/02/24 13:09:38;;;;;;;22.83;13.85;;;;;;;;;;4883055;29;20041;-79
2023/02/24 13:12:04;;;;;;;25.65;14.90;;;;;;;;;;4882879;29;20049;-79
2023/02/24 13:14:37;;;;;;;27.75;14.32;;;;;;;;;;4883002;29;20029;-78
2023/02/24 13:17:07;;;;;;;29.02;14.77;;;;;;;;;;4882859;29;20035;-78
2023/02/24 13:19:33;;;;;;;30.88;15.60;;;;;;;;;;4882957;29;20035;-79
2023/02/24 13:22:11;;;;;;;29.23;16.52;;;;;;;;;;4882841;29;20043;-79
2023/02/24 13:24:38;;;;;;;24.55;15.15;;;;;;;;;;4882802;29;20037;-79
2023/02/24 13:27:24;;;;;;;30.02;16.52;;;;;;;;;;4892936;29;20047;-78
2023/02/24 13:29:52;;;;;;;33.13;16.15;;;;;;;;;;4901343;29;20144;-78
2023/02/24 13:32:27;;;;;;;21.05;14.27;;;;;;;;;;4901312;29;20038;-78
2023/02/24 13:34:54;;;;;;;23.90;15.60;;;;;;;;;;4901227;29;20039;-78
2023/02/24 13:37:30;;;;;;;28.77;15.07;;;;;;;;;;4901116;29;20029;-77
2023/02/24 13:39:56;;;;;;;22.80;14.48;;;;;;;;;;4901223;29;20149;-78
2023/02/24 13:42:24;;;;;;;33.15;15.00;;;;;;;;;;4919428;29;20079;-78
2023/02/24 13:44:54;;;;;;;26.15;14.75;;;;;;;;;;4905040;29;20031;-78
2023/02/24 13:47:26;;;;;;;25.13;12.98;;;;;;;;;;4921713;29;20035;-78
2023/02/24 13:50:23;;;;;;;24.70;15.32;;;;;;;;;;4921710;29;20098;-78
2023/02/24 13:52:49;;;;;;;25.60;13.40;;;;;;;;;;4827029;29;20045;-78
2023/02/24 13:55:15;;;;;;;31.27;17.80;;;;;;;;;;4826899;29;20038;-78
2023/02/24 13:57:49;;;;;;;34.90;18.20;;;;;;;;;;4826880;29;20041;-78
2023/02/24 14:00:36;;;;;;;28.67;18.85;;;;;;;;;;4811175;29;20050;-78
2023/02/24 14:03:08;;;;;;;30.63;15.88;;;;;;;;;;4826601;29;20034;-78
2023/02/24 14:05:36;;;;;;;28.20;15.75;;;;;;;;;;4827066;29;20034;-79
2023/02/24 14:08:02;;;;;;;26.10;15.25;;;;;;;;;;4827090;29;20042;-78
2023/02/24 14:10:30;;;;;;;28.15;17.15;;;;;;;;;;4826678;29;20041;-78
2023/02/24 14:13:07;;;;;;;65.20;34.65;;;;;;;;;;4826674;29;20338;-78
2023/02/24 14:15:34;;;;;;;70.47;37.97;;;;;;;;;;4826714;29;20038;-79
2023/02/24 14:18:01;;;;;;;78.70;40.42;;;;;;;;;;4826769;29;20029;-82
2023/02/24 14:20:31;;;;;;;81.93;43.83;;;;;;;;;;4826662;29;20034;-78
2023/02/24 14:22:57;;;;;;;40.28;21.02;;;;;;;;;;4826671;29;20043;-78
2023/02/24 14:25:25;;;;;;;43.30;25.05;;;;;;;;;;4826630;29;20139;-78
2023/02/24 14:27:53;;;;;;;40.95;22.48;;;;;;;;;;4825592;29;20482;-78
2023/02/24 14:30:29;;;;;;;36.03;20.70;;;;;;;;;;4903494;29;20046;-78
2023/02/24 14:32:56;;;;;;;37.05;19.30;;;;;;;;;;4926555;29;20475;-80
2023/02/24 14:35:57;;;;;;;37.33;19.05;;;;;;;;;;4904751;29;20095;-78
2023/02/24 14:38:30;;;;;;;34.23;16.07;;;;;;;;;;4826527;29;20045;-78
2023/02/24 14:40:57;;;;;;;33.60;17.13;;;;;;;;;;4826344;29;20031;-78
2023/02/24 14:43:23;;;;;;;30.17;15.20;;;;;;;;;;4826496;29;20034;-79
2023/02/24 14:45:50;;;;;;;37.88;19.55;;;;;;;;;;4826442;29;20087;-78
2023/02/24 14:48:24;;;;;;;51.08;27.80;;;;;;;;;;4826426;29;20030;-78
2023/02/24 14:50:51;;;;;;;102.47;50.80;;;;;;;;;;4826287;29;20057;-78
2023/02/24 14:53:19;;;;;;;76.25;39.50;;;;;;;;;;4826176;29;20460;-78
2023/02/24 14:55:48;;;;;;;45.70;23.67;;;;;;;;;;4826031;29;20075;-78
2023/02/24 14:58:20;;;;;;;56.17;30.42;;;;;;;;;;4826107;29;20046;-78
2023/02/24 15:00:49;;;;;;;52.55;29.42;;;;;;;;;;4826202;29;20034;-78
2023/02/24 15:03:22;;;;;;;55.90;30.23;;;;;;;;;;4826162;29;20033;-78
2023/02/24 15:05:50;;;;;;;42.55;22.60;;;;;;;;;;4826175;29;20046;-78
2023/02/24 15:08:22;;;;;;;45.45;27.85;;;;;;;;;;4826103;29;20034;-78
2023/02/24 15:10:48;;;;;;;63.15;35.35;;;;;;;;;;4827358;29;20037;-78
2023/02/24 15:13:18;;;;;;;39.80;20.30;;;;;;;;;;4911833;29;20048;-90
2023/02/24 15:15:44;;;;;;;45.65;26.08;;;;;;;;;;4922747;29;20064;-88